Time;durP1;ratioP1;P1;durP2;ratioP2;P2;SDS_P1;SDS_P2;PMS_P1;PMS_P2;Temp;Humidity;BMP_temperature;BMP_pressure;BME280_temperature;BME280_humidity;BME280_pressure;Samples;Min_cycle;Max_cycle;Signal;HPM_P1;HPM_P2
2022/09/06 00:01:50;;;;;;;6.80;2.80;;;;;;;18.24;58.36;99383.34;5050855;28;20029;-55
2022/09/06 00:04:16;;;;;;;5.03;2.45;;;;;;;18.22;58.68;99384.75;5050278;28;20483;-55
2022/09/06 00:06:41;;;;;;;12.75;3.00;;;;;;;18.31;57.74;99383.00;5049958;28;20041;-53
2022/09/06 00:09:06;;;;;;;6.03;3.00;;;;;;;18.40;57.35;99380.47;5049548;28;20036;-54
2022/09/06 00:11:32;;;;;;;5.07;2.83;;;;;;;18.40;58.39;99377.78;5049945;28;20032;-53
2022/09/06 00:13:57;;;;;;;6.55;2.88;;;;;;;18.23;58.59;99373.63;5049632;28;21678;-55
2022/09/06 00:16:23;;;;;;;4.40;2.58;;;;;;;18.12;59.72;99388.38;5050125;28;20037;-55
2022/09/06 00:18:51;;;;;;;5.43;2.65;;;;;;;18.02;60.21;99402.88;5048733;28;20017;-56
2022/09/06 00:21:23;;;;;;;7.05;2.67;;;;;;;18.05;59.89;99436.75;5054571;28;20035;-55
2022/09/06 00:23:49;;;;;;;10.73;3.53;;;;;;;18.00;59.34;99432.19;5050234;28;20021;-55
2022/09/06 00:26:14;;;;;;;4.57;2.67;;;;;;;17.98;59.68;99453.34;5050342;28;20115;-55
2022/09/06 00:28:40;;;;;;;6.25;2.95;;;;;;;18.19;58.83;99443.09;5052761;28;20236;-55
2022/09/06 00:31:16;;;;;;;6.50;2.80;;;;;;;18.74;56.60;99440.00;5049826;28;20351;-54
2022/09/06 00:33:42;;;;;;;7.38;3.17;;;;;;;19.06;55.92;99436.63;5049406;28;20024;-54
2022/09/06 00:36:07;;;;;;;6.90;2.88;;;;;;;19.29;56.22;99434.13;5048590;28;20021;-55
2022/09/06 00:38:33;;;;;;;6.90;3.15;;;;;;;19.31;55.89;99432.72;5054635;28;20102;-55
2022/09/06 00:40:58;;;;;;;10.10;2.67;;;;;;;19.36;56.80;99434.56;5049519;28;20021;-55
2022/09/06 00:43:24;;;;;;;6.05;2.75;;;;;;;19.49;57.34;99439.25;5049331;28;20036;-55
2022/09/06 00:45:49;;;;;;;4.57;2.47;;;;;;;19.80;57.41;99439.59;5049588;28;20028;-55
2022/09/06 00:48:14;;;;;;;7.63;2.58;;;;;;;19.81;58.00;99434.94;5048224;28;20387;-56
2022/09/06 00:50:41;;;;;;;5.65;2.45;;;;;;;19.81;58.56;99449.34;5049771;28;20490;-56
2022/09/06 00:53:06;;;;;;;5.75;2.50;;;;;;;19.82;59.75;99442.81;5054229;28;20059;-56
2022/09/06 00:55:31;;;;;;;3.50;2.20;;;;;;;19.86;59.75;99448.47;5053429;28;20221;-53
2022/09/06 00:57:57;;;;;;;7.78;2.90;;;;;;;19.83;60.98;99454.50;5048906;28;20044;-56
2022/09/06 01:00:22;;;;;;;6.40;2.92;;;;;;;19.84;61.80;99456.09;5048117;28;20032;-56
2022/09/06 01:02:48;;;;;;;5.57;2.33;;;;;;;20.02;62.57;99457.97;5049142;28;20067;-56
2022/09/06 01:05:14;;;;;;;8.88;2.70;;;;;;;20.05;63.23;99462.00;5049607;28;20037;-54
2022/09/06 01:08:16;;;;;;;6.30;2.58;;;;;;;20.01;62.99;99467.22;5048138;28;20028;-53
2022/09/06 01:11:04;;;;;;;6.70;2.33;;;;;;;19.97;63.50;99470.88;5054162;28;20044;-54
2022/09/06 01:13:41;;;;;;;5.40;2.22;;;;;;;19.93;64.75;99458.97;5047714;28;20479;-55
2022/09/06 01:16:11;;;;;;;5.53;2.13;;;;;;;19.87;64.70;99469.13;5048134;28;20362;-55
2022/09/06 01:18:49;;;;;;;;;;;;;;;19.93;64.73;99475.28;5053845;28;20021;-55
2022/09/06 01:21:30;;;;;;;6.20;2.50;;;;;;;19.84;65.14;99477.84;5049155;28;20007;-55
2022/09/06 01:24:13;;;;;;;9.35;2.25;;;;;;;19.88;65.61;99481.59;5049422;28;20179;-55
2022/09/06 01:26:57;;;;;;;6.40;2.30;;;;;;;19.94;65.26;99493.19;5049423;28;20048;-55
2022/09/06 01:29:38;;;;;;;5.57;2.25;;;;;;;19.85;65.00;99495.81;5048971;28;20417;-54
2022/09/06 01:32:10;;;;;;;5.07;2.45;;;;;;;19.55;66.01;99487.00;5048147;28;20040;-54
2022/09/06 01:34:43;;;;;;;3.50;2.35;;;;;;;19.40;68.32;99495.41;5048174;28;20017;-55
2022/09/06 01:37:16;;;;;;;6.60;2.20;;;;;;;19.30;69.95;99495.53;5053150;28;20037;-55
2022/09/06 01:39:41;;;;;;;10.93;2.58;;;;;;;19.28;70.54;99495.81;5048155;28;20068;-53
2022/09/06 01:42:11;;;;;;;5.65;2.22;;;;;;;19.24;70.75;99491.25;5048726;28;20472;-55
2022/09/06 01:44:37;;;;;;;4.93;2.30;;;;;;;19.24;71.05;99477.69;5048369;28;20032;-55
2022/09/06 01:47:21;;;;;;;8.80;2.30;;;;;;;19.19;71.21;99475.84;5048503;28;20514;-54
2022/09/06 01:50:11;;;;;;;6.28;2.40;;;;;;;18.95;74.02;99478.63;5047493;28;20040;-53
2022/09/06 01:52:54;;;;;;;6.20;2.42;;;;;;;18.57;77.03;99478.53;5048431;28;20464;-55
2022/09/06 01:55:46;;;;;;;6.80;2.72;;;;;;;18.15;81.19;99471.91;5048695;28;20067;-54
2022/09/06 01:58:14;;;;;;;8.95;2.50;;;;;;;17.82;84.96;99460.81;5047151;28;20395;-54
2022/09/06 02:01:02;;;;;;;6.30;2.80;;;;;;;17.50;88.53;99463.19;5048376;28;20024;-54
2022/09/06 02:03:46;;;;;;;5.47;2.90;;;;;;;17.54;88.13;99456.13;5053526;28;20026;-55
2022/09/06 02:06:13;;;;;;;6.68;2.80;;;;;;;17.47;88.49;99437.47;5048824;28;20551;-54
2022/09/06 02:08:45;;;;;;;4.15;2.63;;;;;;;17.39;89.14;99417.22;5056399;28;20036;-54
2022/09/06 02:11:13;;;;;;;8.40;3.00;;;;;;;17.41;89.43;99393.38;5050270;28;20103;-53
2022/09/06 02:13:59;;;;;;;8.27;3.05;;;;;;;17.39;89.75;99394.75;5046141;28;20033;-53
2022/09/06 02:16:25;;;;;;;7.38;3.40;;;;;;;17.31;91.79;99398.88;5047082;28;20470;-54
2022/09/06 02:19:12;;;;;;;9.85;3.83;;;;;;;17.24;92.72;99387.53;5049471;28;20036;-53
2022/09/06 02:21:41;;;;;;;6.03;3.47;;;;;;;17.28;92.30;99380.47;5061210;28;20020;-54
2022/09/06 02:24:08;;;;;;;9.27;3.85;;;;;;;17.30;92.29;99364.75;5031332;28;20387;-51
2022/09/06 02:26:36;;;;;;;5.35;3.33;;;;;;;17.32;91.85;99364.47;5048488;28;20033;-54
2022/09/06 02:29:01;;;;;;;10.18;3.33;;;;;;;17.40;91.14;99353.84;5047055;28;20112;-53
2022/09/06 02:31:36;;;;;;;5.32;2.83;;;;;;;17.42;90.66;99362.50;5046593;28;20045;-54
2022/09/06 02:34:02;;;;;;;4.32;2.88;;;;;;;17.51;89.37;99367.28;5048603;28;20021;-53
2022/09/06 02:36:29;;;;;;;5.95;3.20;;;;;;;17.50;89.39;99355.66;5033336;28;20498;-54
2022/09/06 02:38:54;;;;;;;5.57;3.00;;;;;;;17.54;88.99;99364.81;5044703;28;20033;-54
2022/09/06 02:41:21;;;;;;;6.70;2.83;;;;;;;17.54;89.33;99386.47;5051432;28;20087;-54
2022/09/06 02:43:47;;;;;;;5.63;3.03;;;;;;;17.57;90.88;99396.78;5051606;28;20048;-54
2022/09/06 02:46:12;;;;;;;5.65;3.30;;;;;;;17.52;90.34;99393.28;5049967;28;20491;-55
2022/09/06 02:48:38;;;;;;;7.65;3.20;;;;;;;17.52;90.80;99385.16;5048134;28;20037;-54
2022/09/06 02:51:04;;;;;;;9.27;3.22;;;;;;;17.45;90.29;99372.75;5048103;28;20037;-54
2022/09/06 02:53:30;;;;;;;8.23;3.83;;;;;;;17.40;91.06;99378.22;5048839;28;20025;-55
2022/09/06 02:55:56;;;;;;;8.80;3.30;;;;;;;17.32;91.67;99384.22;5051029;28;20040;-54
2022/09/06 02:58:21;;;;;;;6.75;3.60;;;;;;;17.24;93.04;99392.97;5052408;28;20036;-55
2022/09/06 03:00:47;;;;;;;6.72;3.50;;;;;;;17.10;94.48;99394.69;5052695;28;20360;-54
2022/09/06 03:03:12;;;;;;;6.70;3.30;;;;;;;16.93;96.23;99400.50;5051702;28;20072;-54
2022/09/06 03:05:37;;;;;;;8.40;3.67;;;;;;;16.90;95.96;99396.44;5052226;28;20037;-55
2022/09/06 03:08:03;;;;;;;7.40;3.53;;;;;;;16.80;96.46;99393.81;5057141;28;20064;-55
2022/09/06 03:10:28;;;;;;;8.70;4.07;;;;;;;16.76;97.05;99407.03;5051332;28;20021;-54
2022/09/06 03:12:54;;;;;;;6.53;3.90;;;;;;;16.63;99.44;99399.53;5051143;28;20021;-54
2022/09/06 03:15:19;;;;;;;10.07;4.10;;;;;;;16.55;99.32;99398.22;5053958;28;20147;-55
2022/09/06 03:17:45;;;;;;;6.28;3.95;;;;;;;16.29;100.00;99391.28;5051487;28;20021;-54
2022/09/06 03:20:11;;;;;;;8.80;4.40;;;;;;;16.29;100.00;99383.97;5051325;28;20041;-54
2022/09/06 03:22:38;;;;;;;8.85;4.28;;;;;;;16.18;100.00;99377.81;5050991;28;20037;-53
2022/09/06 03:25:04;;;;;;;12.90;4.00;;;;;;;16.17;100.00;99381.59;5051032;28;20025;-54
2022/09/06 03:27:29;;;;;;;9.90;4.28;;;;;;;16.21;100.00;99378.34;5050578;28;20108;-54
2022/09/06 03:29:55;;;;;;;11.48;5.18;;;;;;;16.20;100.00;99379.41;5051129;28;20040;-53
2022/09/06 03:32:20;;;;;;;12.10;4.57;;;;;;;16.24;100.00;99385.91;5051331;28;20017;-51
2022/09/06 03:34:45;;;;;;;8.95;4.70;;;;;;;16.27;100.00;99382.63;5051007;28;20027;-51
2022/09/06 03:37:11;;;;;;;7.85;4.75;;;;;;;16.24;100.00;99375.88;5050926;28;20276;-54
2022/09/06 03:39:36;;;;;;;8.88;4.60;;;;;;;16.22;100.00;99379.94;5051007;28;20029;-53
2022/09/06 03:42:02;;;;;;;6.70;4.13;;;;;;;16.24;99.88;99385.91;5049547;28;20025;-53
2022/09/06 03:44:27;;;;;;;7.30;4.43;;;;;;;16.21;99.20;99375.63;5050809;28;20396;-53
2022/09/06 03:46:53;;;;;;;11.27;4.50;;;;;;;16.06;99.81;99369.19;5050642;28;20036;-53
2022/09/06 03:49:18;;;;;;;8.60;4.00;;;;;;;15.96;99.48;99369.22;5049208;28;20044;-54
2022/09/06 03:51:44;;;;;;;9.00;4.55;;;;;;;15.85;100.00;99371.16;5050559;28;20032;-54
2022/09/06 03:54:09;;;;;;;10.40;4.70;;;;;;;15.99;100.00;99371.38;5056724;28;20024;-55
2022/09/06 03:56:34;;;;;;;10.18;4.75;;;;;;;15.87;100.00;99373.56;5050563;28;20475;-54
2022/09/06 03:59:00;;;;;;;10.25;4.97;;;;;;;15.79;100.00;99371.41;5050382;28;20520;-54
2022/09/06 04:01:25;;;;;;;8.43;5.00;;;;;;;15.84;100.00;99363.28;5049958;28;20035;-55
2022/09/06 04:03:51;;;;;;;7.95;5.03;;;;;;;15.84;100.00;99371.41;5050527;28;20025;-55
2022/09/06 04:06:16;;;;;;;14.48;5.38;;;;;;;15.77;100.00;99365.47;5050162;28;20530;-52
2022/09/06 04:08:42;;;;;;;12.05;5.35;;;;;;;15.81;100.00;99363.84;5050046;28;20031;-55
2022/09/06 04:11:07;;;;;;;11.10;5.22;;;;;;;15.92;100.00;99360.03;5050222;28;20032;-55
2022/09/06 04:13:33;;;;;;;11.73;5.10;;;;;;;15.92;100.00;99360.03;5049674;28;20036;-55
2022/09/06 04:15:58;;;;;;;9.77;5.85;;;;;;;15.98;100.00;99350.03;5049510;28;20043;-54
2022/09/06 04:18:24;;;;;;;10.38;5.10;;;;;;;16.12;98.42;99346.44;5050229;28;20024;-56
2022/09/06 04:20:50;;;;;;;12.32;5.30;;;;;;;16.00;98.79;99348.66;5050004;28;20479;-54
2022/09/06 04:23:16;;;;;;;6.85;4.50;;;;;;;16.05;97.59;99353.22;5050156;28;20029;-55
2022/09/06 04:25:47;;;;;;;18.98;4.90;;;;;;;15.90;96.52;99354.91;5050025;28;20475;-54
2022/09/06 04:28:13;;;;;;;7.78;4.93;;;;;;;15.74;98.11;99346.00;5054403;28;20032;-53
2022/09/06 04:30:38;;;;;;;11.48;5.07;;;;;;;15.63;98.44;99352.50;5054532;28;20024;-54
2022/09/06 04:33:03;;;;;;;11.07;5.40;;;;;;;15.48;99.23;99347.13;5049654;28;20029;-56
2022/09/06 04:35:29;;;;;;;13.82;5.32;;;;;;;15.27;100.00;99349.81;5032215;28;20345;-54
2022/09/06 04:37:54;;;;;;;13.20;4.90;;;;;;;15.38;100.00;99357.94;5053489;28;20537;-54
2022/09/06 04:40:20;;;;;;;9.50;5.10;;;;;;;15.39;99.43;99354.16;5052742;28;20024;-54
2022/09/06 04:42:45;;;;;;;9.13;4.95;;;;;;;15.35;99.80;99361.16;5049714;28;20498;-56
2022/09/06 04:45:11;;;;;;;11.07;5.30;;;;;;;15.34;100.00;99356.84;5049784;28;20321;-54
2022/09/06 04:47:36;;;;;;;9.55;4.93;;;;;;;15.32;100.00;99354.41;5051965;28;20364;-54
2022/09/06 04:50:02;;;;;;;9.95;4.93;;;;;;;15.27;100.00;99347.09;5049565;28;20033;-52
2022/09/06 04:52:29;;;;;;;9.23;5.30;;;;;;;15.11;99.33;99359.00;5048194;28;20021;-56
2022/09/06 04:54:54;;;;;;;13.05;5.05;;;;;;;14.97;99.91;99358.69;5056709;28;20066;-57
2022/09/06 04:57:19;;;;;;;10.43;5.00;;;;;;;15.00;100.00;99365.44;5048252;28;20029;-54
2022/09/06 04:59:45;;;;;;;13.65;4.63;;;;;;;14.87;100.00;99367.59;5049471;28;20025;-54
2022/09/06 05:02:10;;;;;;;11.50;5.05;;;;;;;14.68;100.00;99363.78;5049585;28;20029;-54
2022/09/06 05:04:36;;;;;;;10.55;5.20;;;;;;;14.82;100.00;99362.19;5049676;28;20029;-55
2022/09/06 05:07:03;;;;;;;13.75;5.30;;;;;;;14.96;100.00;99362.50;5049403;28;20037;-53
2022/09/06 05:09:29;;;;;;;7.43;5.00;;;;;;;15.15;100.00;99365.50;5048314;28;20029;-55
2022/09/06 05:11:54;;;;;;;9.30;5.00;;;;;;;15.87;98.70;99371.66;5048645;28;20037;-55
2022/09/06 05:14:20;;;;;;;11.27;4.68;;;;;;;17.20;85.77;99378.38;5049281;28;20048;-57
2022/09/06 05:16:46;;;;;;;7.93;5.05;;;;;;;17.15;84.99;99379.22;5049472;28;20067;-54
2022/09/06 05:19:11;;;;;;;13.18;4.25;;;;;;;16.68;86.35;99379.75;5053206;28;20028;-54
2022/09/06 05:21:37;;;;;;;7.30;4.90;;;;;;;16.36;87.53;99389.09;5049609;28;20040;-54
2022/09/06 05:24:02;;;;;;;11.10;4.70;;;;;;;15.90;92.19;99386.50;5049092;28;20311;-55
2022/09/06 05:26:28;;;;;;;10.13;4.63;;;;;;;16.11;92.56;99377.28;5049112;28;20033;-54
2022/09/06 05:28:53;;;;;;;10.02;4.78;;;;;;;17.14;86.86;99382.19;5049012;28;20037;-56
2022/09/06 05:31:26;;;;;;;6.90;4.00;;;;;;;19.52;74.25;99384.31;5048133;28;20668;-55
2022/09/06 05:33:52;;;;;;;6.32;3.90;;;;;;;18.73;76.89;99384.91;5048102;28;20032;-54
2022/09/06 05:36:18;;;;;;;8.80;3.40;;;;;;;21.09;68.33;99386.09;5056074;28;20024;-56
2022/09/06 05:38:43;;;;;;;11.00;3.92;;;;;;;21.79;65.97;99383.88;5053306;28;20025;-56
2022/09/06 05:41:09;;;;;;;9.45;3.78;;;;;;;23.50;59.17;99393.88;5049313;28;20636;-55
2022/09/06 05:43:36;;;;;;;17.15;4.15;;;;;;;22.67;61.93;99394.03;5048506;28;20387;-55
2022/09/06 05:46:01;;;;;;;17.83;3.30;;;;;;;22.96;61.06;99396.94;5048467;28;20489;-55
2022/09/06 05:48:27;;;;;;;9.32;3.50;;;;;;;22.12;64.02;99392.56;5050766;28;20467;-55
2022/09/06 05:51:06;;;;;;;8.82;3.35;;;;;;;22.11;63.88;99399.91;5054085;28;20475;-55
2022/09/06 05:53:35;;;;;;;5.53;3.30;;;;;;;24.27;57.76;99410.44;5054263;28;20025;-54
2022/09/06 05:56:01;;;;;;;9.88;2.83;;;;;;;25.13;56.00;99403.59;5052419;28;20025;-55
2022/09/06 05:58:26;;;;;;;13.68;3.80;;;;;;;25.51;51.57;99401.84;5052918;28;20028;-56
2022/09/06 06:00:52;;;;;;;10.15;3.40;;;;;;;24.82;53.71;99409.50;5048756;28;20357;-55
2022/09/06 06:03:18;;;;;;;14.27;3.17;;;;;;;25.15;52.85;99411.50;5051940;28;20510;-55
2022/09/06 06:05:46;;;;;;;5.68;2.78;;;;;;;25.03;54.84;99412.25;5049413;28;20499;-55
2022/09/06 06:08:12;;;;;;;9.90;2.70;;;;;;;24.25;57.58;99413.50;5048440;28;20659;-55
2022/09/06 06:10:38;;;;;;;6.55;2.65;;;;;;;24.39;57.18;99418.75;5048455;28;20289;-55
2022/09/06 06:13:03;;;;;;;5.88;2.95;;;;;;;22.77;62.53;99416.38;5053051;28;20408;-55
2022/09/06 06:15:31;;;;;;;7.32;3.00;;;;;;;22.66;63.61;99415.06;5049153;28;20166;-55
2022/09/06 06:17:56;;;;;;;7.35;2.70;;;;;;;23.23;62.23;99412.25;5052975;28;20036;-55
2022/09/06 06:20:22;;;;;;;6.00;2.80;;;;;;;21.86;66.70;99420.50;5048166;28;20025;-56
2022/09/06 06:22:47;;;;;;;4.50;2.63;;;;;;;22.17;66.56;99419.72;5048922;28;20036;-53
2022/09/06 06:25:13;;;;;;;3.80;2.53;;;;;;;23.44;62.38;99423.34;5048392;28;20071;-54
2022/09/06 06:27:38;;;;;;;7.50;2.92;;;;;;;23.16;63.13;99417.38;5048247;28;20542;-55
2022/09/06 06:30:04;;;;;;;4.82;2.58;;;;;;;25.55;56.23;99422.00;5049352;28;20040;-55
2022/09/06 06:32:29;;;;;;;6.07;2.53;;;;;;;23.21;62.38;99424.63;5051714;28;20112;-55
2022/09/06 06:34:55;;;;;;;4.75;2.60;;;;;;;21.78;67.39;99428.66;5051546;28;20041;-57
2022/09/06 06:37:20;;;;;;;7.10;2.75;;;;;;;22.36;65.72;99428.47;5061488;28;20043;-55
2022/09/06 06:39:46;;;;;;;7.45;2.90;;;;;;;23.18;62.91;99428.00;5051424;28;20033;-55
2022/09/06 06:42:12;;;;;;;4.65;2.88;;;;;;;24.35;59.32;99428.75;5051447;28;20048;-55
2022/09/06 06:44:37;;;;;;;5.80;2.97;;;;;;;23.16;63.02;99428.31;5051586;28;20036;-56
2022/09/06 06:47:03;;;;;;;6.97;2.78;;;;;;;22.52;64.80;99428.84;5056771;28;20275;-55
2022/09/06 06:49:29;;;;;;;6.18;2.85;;;;;;;22.12;67.54;99433.50;5054264;28;20020;-55
2022/09/06 06:51:54;;;;;;;7.25;2.83;;;;;;;22.99;64.56;99433.81;5051975;28;20036;-56
2022/09/06 06:54:19;;;;;;;7.38;3.03;;;;;;;22.86;63.58;99434.69;5050080;28;20025;-55
2022/09/06 06:56:45;;;;;;;8.25;3.15;;;;;;;23.42;64.57;99436.53;5055335;28;20028;-55
2022/09/06 06:59:11;;;;;;;6.25;2.70;;;;;;;22.77;63.93;99438.22;5056212;28;20021;-56
2022/09/06 07:01:36;;;;;;;4.53;2.58;;;;;;;22.83;64.90;99436.16;5053873;28;20471;-55
2022/09/06 07:04:02;;;;;;;7.18;2.60;;;;;;;23.46;62.24;99437.50;5049968;28;20063;-55
2022/09/06 07:06:28;;;;;;;5.10;2.50;;;;;;;23.44;63.41;99434.28;5051211;28;20120;-55
2022/09/06 07:08:56;;;;;;;5.53;2.40;;;;;;;23.63;61.71;99435.88;5051392;28;20025;-55
2022/09/06 07:11:22;;;;;;;6.45;2.22;;;;;;;23.41;63.28;99429.47;5055313;28;20025;-56
2022/09/06 07:13:47;;;;;;;4.95;2.55;;;;;;;23.19;63.04;99419.50;5050701;28;20021;-55
2022/09/06 07:16:22;;;;;;;8.40;2.50;;;;;;;24.69;58.77;99429.75;5051422;28;20039;-55
2022/09/06 07:18:51;;;;;;;4.22;2.20;;;;;;;22.30;65.61;99424.28;5052680;28;20446;-54
2022/09/06 07:21:19;;;;;;;4.63;1.90;;;;;;;22.76;64.37;99422.94;5051068;28;20452;-53
2022/09/06 07:23:47;;;;;;;3.95;2.33;;;;;;;23.83;61.93;99418.00;5052992;28;20040;-55
2022/09/06 07:26:17;;;;;;;5.22;2.30;;;;;;;22.36;64.89;99417.53;5053644;28;20028;-55
2022/09/06 07:28:42;;;;;;;;;;;;;;;22.35;64.07;99415.16;5051120;28;20162;-56
2022/09/06 07:31:08;;;;;;;4.93;1.90;;;;;;;23.85;59.92;99421.22;5050574;28;20330;-55
2022/09/06 07:33:35;;;;;;;4.35;2.20;;;;;;;25.52;54.62;99408.97;5054666;28;20020;-56
2022/09/06 07:36:01;;;;;;;3.42;1.80;;;;;;;24.94;54.54;99422.47;5051372;28;20029;-55
2022/09/06 07:38:30;;;;;;;3.30;2.28;;;;;;;24.96;55.38;99420.19;5051396;28;20095;-55
2022/09/06 07:40:57;;;;;;;6.93;2.03;;;;;;;23.29;59.46;99423.84;5052712;28;20033;-55
2022/09/06 07:43:23;;;;;;;3.95;2.10;;;;;;;23.81;58.60;99420.25;5049402;28;20280;-54
2022/09/06 07:46:05;;;;;;;3.53;1.83;;;;;;;24.08;58.21;99417.09;5034817;28;20426;-54
2022/09/06 07:48:32;;;;;;;5.10;2.10;;;;;;;22.68;60.32;99420.22;5049578;28;20491;-55
2022/09/06 07:51:04;;;;;;;3.33;1.98;;;;;;;23.01;59.90;99417.88;5050558;28;20493;-55
2022/09/06 07:53:29;;;;;;;3.40;2.05;;;;;;;24.15;57.76;99419.34;5050246;28;20036;-55
2022/09/06 07:55:55;;;;;;;7.75;2.00;;;;;;;24.61;56.07;99409.47;5055807;28;20020;-56
2022/09/06 07:58:21;;;;;;;7.22;2.25;;;;;;;25.14;54.11;99412.66;5052160;28;20349;-55
2022/09/06 08:00:47;;;;;;;2.85;2.10;;;;;;;23.52;58.39;99418.19;5050544;28;20037;-54
2022/09/06 08:03:12;;;;;;;4.55;1.83;;;;;;;25.42;53.55;99425.84;5049418;28;20421;-55
2022/09/06 08:05:38;;;;;;;4.97;2.13;;;;;;;26.03;51.39;99418.63;5054308;28;20036;-54
2022/09/06 08:08:03;;;;;;;5.18;1.88;;;;;;;26.93;49.51;99420.66;5050526;28;20029;-57
2022/09/06 08:10:29;;;;;;;3.40;1.73;;;;;;;25.46;53.05;99433.06;5051489;28;20063;-55
2022/09/06 08:12:54;;;;;;;6.43;2.03;;;;;;;25.28;53.79;99434.34;5058362;28;20029;-55
2022/09/06 08:15:20;;;;;;;5.93;2.00;;;;;;;25.42;54.32;99442.31;5050752;28;20090;-56
2022/09/06 08:17:49;;;;;;;4.95;2.20;;;;;;;24.96;55.41;99436.63;5057443;28;20650;-55
2022/09/06 08:20:14;;;;;;;3.97;2.08;;;;;;;25.06;54.89;99438.19;5032877;28;20036;-56
2022/09/06 08:22:40;;;;;;;4.32;2.05;;;;;;;25.44;54.51;99432.59;5032405;28;20021;-55
2022/09/06 08:25:06;;;;;;;3.25;2.20;;;;;;;24.91;56.28;99439.56;5049607;28;20479;-55
2022/09/06 08:27:32;;;;;;;4.05;2.40;;;;;;;23.21;60.99;99427.38;5048352;28;20464;-53
2022/09/06 08:29:57;;;;;;;5.10;1.95;;;;;;;25.02;55.96;99427.09;5050393;28;20039;-55
2022/09/06 08:32:23;;;;;;;5.85;2.13;;;;;;;25.12;56.55;99423.16;5049907;28;20043;-55
2022/09/06 08:34:49;;;;;;;5.70;1.90;;;;;;;25.93;53.70;99423.72;5048357;28;20542;-56
2022/09/06 08:37:14;;;;;;;2.72;1.92;;;;;;;23.61;56.71;99418.97;5052479;28;20046;-54
2022/09/06 08:39:40;;;;;;;4.18;1.92;;;;;;;26.26;51.33;99415.44;5054011;28;20032;-54
2022/09/06 08:42:05;;;;;;;5.30;2.05;;;;;;;25.04;55.00;99416.59;5049471;28;20017;-57
2022/09/06 08:44:36;;;;;;;5.15;2.15;;;;;;;25.31;53.59;99415.28;5049641;28;20108;-55
2022/09/06 08:47:09;;;;;;;6.15;2.10;;;;;;;25.30;53.44;99408.19;5049850;28;20033;-54
2022/09/06 08:49:36;;;;;;;6.10;2.17;;;;;;;24.24;56.09;99408.34;5049504;28;20053;-54
2022/09/06 08:52:14;;;;;;;2.65;1.77;;;;;;;26.51;49.14;99390.66;5046998;28;20033;-53
2022/09/06 08:55:03;;;;;;;8.18;2.17;;;;;;;26.43;49.51;99393.22;5049042;28;20093;-55
2022/09/06 08:57:48;;;;;;;3.83;1.90;;;;;;;25.74;50.34;99388.56;5051429;28;20088;-56
2022/09/06 09:00:14;;;;;;;4.15;1.73;;;;;;;25.20;51.83;99391.34;5057697;28;20064;-55
2022/09/06 09:03:19;;;;;;;5.55;2.00;;;;;;;26.25;47.15;99389.88;5047819;28;20498;-56
2022/09/06 09:05:47;;;;;;;4.30;1.80;;;;;;;26.77;46.38;99399.38;5019510;28;20041;-55
2022/09/06 09:08:27;;;;;;;5.53;2.35;;;;;;;26.91;45.99;99385.28;5048101;28;20035;-55
2022/09/06 09:11:04;;;;;;;5.90;1.80;;;;;;;25.50;48.77;99383.78;5047872;28;20033;-55
2022/09/06 09:13:45;;;;;;;3.08;1.85;;;;;;;25.66;48.59;99392.16;5047744;28;20052;-56
2022/09/06 09:16:10;;;;;;;5.75;1.88;;;;;;;26.16;48.53;99394.72;5049167;28;20499;-55
2022/09/06 09:18:37;;;;;;;3.30;1.63;;;;;;;25.42;49.97;99388.22;5048675;28;20033;-54
2022/09/06 09:21:03;;;;;;;5.47;1.88;;;;;;;26.95;47.48;99380.66;5050088;28;20119;-53
2022/09/06 09:23:29;;;;;;;3.78;2.10;;;;;;;25.83;49.37;99375.50;5047998;28;20153;-56
2022/09/06 09:25:58;;;;;;;5.40;1.92;;;;;;;25.40;50.81;99372.09;5031025;28;20029;-55
2022/09/06 09:28:23;;;;;;;6.50;1.83;;;;;;;25.31;50.88;99360.44;5052681;28;20021;-54
2022/09/06 09:30:53;;;;;;;11.27;1.90;;;;;;;24.81;52.42;99365.97;5048893;28;20479;-54
2022/09/06 09:33:22;;;;;;;3.58;1.80;;;;;;;26.22;49.19;99365.06;5048891;28;20029;-55
2022/09/06 09:35:48;;;;;;;6.03;1.90;;;;;;;27.27;47.13;99361.56;5050719;28;20021;-54
2022/09/06 09:38:22;;;;;;;3.38;1.90;;;;;;;26.41;48.13;99362.53;5046805;28;20036;-54
2022/09/06 09:41:00;;;;;;;3.80;1.98;;;;;;;26.78;47.64;99362.47;5035518;28;20036;-55
2022/09/06 09:43:34;;;;;;;5.07;2.53;;;;;;;28.38;44.10;99354.16;5048252;28;20252;-56
2022/09/06 09:46:17;;;;;;;4.20;2.05;;;;;;;26.08;48.75;99353.59;5049954;28;20103;-57
2022/09/06 09:48:47;;;;;;;6.38;1.83;;;;;;;27.06;46.79;99346.03;5048433;28;20021;-55
2022/09/06 09:51:23;;;;;;;7.25;2.20;;;;;;;25.96;49.78;99344.22;5048792;28;20028;-55
2022/09/06 09:53:56;;;;;;;3.97;1.90;;;;;;;26.80;48.57;99337.41;5048581;28;20472;-56
2022/09/06 09:56:27;;;;;;;6.10;2.10;;;;;;;26.54;48.88;99337.81;5049084;28;20035;-56
2022/09/06 09:58:53;;;;;;;6.88;2.15;;;;;;;26.00;50.46;99336.09;5047043;28;20021;-54
2022/09/06 10:01:25;;;;;;;5.78;2.10;;;;;;;26.07;50.32;99341.03;5049550;28;20033;-54
2022/09/06 10:03:51;;;;;;;5.28;2.25;;;;;;;26.01;49.93;99337.72;5047521;28;20040;-55
2022/09/06 10:06:17;;;;;;;6.90;2.20;;;;;;;26.86;48.37;99344.28;5052215;28;20045;-54
2022/09/06 10:08:42;;;;;;;8.85;1.90;;;;;;;26.90;47.92;99334.94;5034034;28;20071;-55
2022/09/06 10:11:14;;;;;;;4.97;1.90;;;;;;;26.77;48.49;99338.09;5034251;28;20041;-55
2022/09/06 10:13:41;;;;;;;5.20;2.10;;;;;;;25.63;50.35;99343.47;5051756;28;20031;-55
2022/09/06 10:16:07;;;;;;;6.72;2.08;;;;;;;26.81;48.25;99337.06;5052544;28;20071;-55
2022/09/06 10:18:40;;;;;;;7.95;2.13;;;;;;;26.26;49.70;99330.28;5051060;28;20025;-55
2022/09/06 10:21:08;;;;;;;6.18;2.00;;;;;;;26.48;49.53;99328.97;5051924;28;20040;-54
2022/09/06 10:24:03;;;;;;;3.95;2.00;;;;;;;27.29;47.72;99335.28;5052475;28;20021;-54
2022/09/06 10:26:53;;;;;;;4.75;2.00;;;;;;;26.63;49.30;99331.03;5031962;28;20060;-55
2022/09/06 10:29:28;;;;;;;4.28;2.10;;;;;;;26.16;50.06;99334.28;5057706;28;20506;-54
2022/09/06 10:32:16;;;;;;;5.20;2.38;;;;;;;26.20;50.24;99329.69;5057350;28;20390;-55
2022/09/06 10:35:02;;;;;;;4.40;2.30;;;;;;;27.65;46.99;99319.69;5063501;28;20033;-56
2022/09/06 10:37:39;;;;;;;3.97;2.20;;;;;;;27.45;47.09;99316.03;5052529;28;20052;-55
2022/09/06 10:40:09;;;;;;;5.47;2.38;;;;;;;28.92;44.03;99321.44;5053125;28;20043;-55
2022/09/06 10:42:53;;;;;;;5.20;2.30;;;;;;;28.24;46.19;99328.22;5055904;28;20060;-53
2022/09/06 10:45:34;;;;;;;5.40;2.20;;;;;;;29.99;42.47;99317.13;5052053;28;20491;-54
2022/09/06 10:48:17;;;;;;;5.05;2.20;;;;;;;28.99;43.53;99314.13;5046841;28;20373;-55
2022/09/06 10:50:55;;;;;;;7.45;2.63;;;;;;;28.85;43.67;99319.34;5051944;28;20105;-52
2022/09/06 10:53:20;;;;;;;5.13;2.53;;;;;;;27.60;46.90;99310.91;5050517;28;20032;-54
2022/09/06 10:55:49;;;;;;;7.47;2.60;;;;;;;27.78;46.96;99309.38;5052110;28;20025;-52
2022/09/06 10:58:20;;;;;;;5.60;2.80;;;;;;;28.04;45.81;99308.88;5038470;28;20040;-55
2022/09/06 11:00:46;;;;;;;8.10;2.50;;;;;;;27.20;47.14;99307.13;5035505;28;20090;-54
2022/09/06 11:03:29;;;;;;;6.85;2.55;;;;;;;27.47;47.15;99291.72;5050457;28;20074;-53
2022/09/06 11:06:05;;;;;;;4.38;2.42;;;;;;;28.29;45.48;99297.66;5050354;28;20044;-54
2022/09/06 11:08:46;;;;;;;6.72;2.30;;;;;;;28.12;45.13;99294.09;5051695;28;20025;-53
2022/09/06 11:11:27;;;;;;;4.72;3.00;;;;;;;26.79;48.12;99298.13;5051799;28;20033;-53
2022/09/06 11:13:52;;;;;;;5.75;2.53;;;;;;;26.90;48.10;99296.44;5049883;28;20075;-54
2022/09/06 11:16:17;;;;;;;9.25;2.90;;;;;;;27.35;47.15;99285.50;5051670;28;20036;-54
2022/09/06 11:19:02;;;;;;;4.80;2.50;;;;;;;27.60;46.63;99288.88;5051852;28;20021;-53
2022/09/06 11:21:54;;;;;;;4.80;2.22;;;;;;;26.76;48.48;99285.06;5056274;28;20249;-54
2022/09/06 11:24:35;;;;;;;9.27;2.83;;;;;;;27.93;46.29;99291.28;5051301;28;20157;-55
2022/09/06 11:27:30;;;;;;;4.60;2.47;;;;;;;28.54;44.37;99292.72;5053116;28;20479;-54
2022/09/06 11:29:56;;;;;;;7.32;2.97;;;;;;;27.88;45.66;99286.06;5048738;28;20044;-55
2022/09/06 11:32:32;;;;;;;4.88;2.55;;;;;;;28.14;45.39;99278.03;5051181;28;20075;-52
2022/09/06 11:34:59;;;;;;;7.13;2.78;;;;;;;29.26;43.42;99278.41;5054782;28;20064;-54
2022/09/06 11:37:43;;;;;;;7.68;2.80;;;;;;;28.83;44.30;99283.06;5050132;28;20079;-52
2022/09/06 11:40:27;;;;;;;4.30;2.40;;;;;;;28.54;44.85;99276.97;5049725;28;20391;-53
2022/09/06 11:42:53;;;;;;;10.00;2.55;;;;;;;27.44;46.66;99269.63;5054007;28;20041;-55